• Join FlightAware (Why Join?)
  • Login
  • US Flag 
11:21AM EDT


 

Airport Tracker/Info


-or-


 

Live Flight TrackerFlight Track Log ✈ JZA8193 ✈ 03-Jun-2013 ✈ CYKA - CYVR

Flight Track Log - Related Links

Times and Time Zones

All times are in EDT time to prevent confusion due to time zone crossing. See the JZA8193 flight status page for this flight to view local times or setup timezone preferences in your user account.

Time Position Orientation Groundspeed Altitude Reporting Facility
EDT Latitude Longitude Course Direction KTS MPH feet Rate Location/Type
02:52PM 50.7000 -120.4833 210° Southwest 110 127 3,000  Level Vancouver Center
02:53PM 50.7000 -120.5333 270° West 130 150 4,400 1,440 Climbing Vancouver Center
02:54PM 50.7167 -120.5833 298° West 140 161 5,900 1,500 Climbing Vancouver Center
02:55PM 50.4757 -120.5076 212° Southwest  Level FlightAware Approximate
02:55PM 50.7167 -120.6667 270° West 140 161 7,500  Level Vancouver Center
02:56PM 50.4113 -120.5548 210° Southwest  Level FlightAware Approximate
02:56PM 50.7333 -120.7167 298° West 150 173 9,000  Level Vancouver Center
02:57PM 50.3477 -120.6114 210° Southwest  Level FlightAware Approximate
02:57PM 50.7167 -120.8000 252° West 160 184 10,500  Level Vancouver Center
02:58PM 50.6833 -120.8167 198° South 160 184 12,000 1,500 Climbing Vancouver Center
02:59PM 50.6333 -120.8833 220° Southwest 170 196 13,500 1,440 Climbing Vancouver Center
03:00PM 50.6000 -120.9000 198° South 170 196 14,900 1,200 Climbing Vancouver Center
03:01PM 50.5500 -120.9667 220° Southwest 170 196 16,000 600 Climbing Vancouver Center
03:02PM 50.5000 -121.0167 212° Southwest 210 242 16,100 600 Climbing Vancouver Center
03:03PM 50.4500 -121.0667 212° Southwest 240 276 17,200 900 Climbing Vancouver Center
03:04PM 50.4167 -121.1333 232° Southwest 230 265 17,900 360 Climbing Vancouver Center
03:05PM 50.3500 -121.1833 206° Southwest 240 276 18,000 300 Climbing Vancouver Center
03:06PM 50.2833 -121.2333 206° Southwest 260 299 18,500 720 Climbing Vancouver Center
03:07PM 50.2333 -121.3000 220° Southwest 250 288 19,500 720 Climbing Vancouver Center
03:08PM 50.1667 -121.3667 213° Southwest 240 276 20,000 240 Climbing Vancouver Center
03:09PM 50.1167 -121.4000 203° Southwest 250 288 20,000  Level Vancouver Center
03:10PM 50.0500 -121.4667 213° Southwest 260 299 20,000  Level Vancouver Center
03:11PM 49.9833 -121.5333 213° Southwest 270 311 20,000  Level Vancouver Center
03:12PM 49.9333 -121.6167 227° Southwest 270 311 20,000 -480 Level Vancouver Center
03:13PM 49.8667 -121.7000 219° Southwest 290 334 19,100 -960 Descending Vancouver Center
03:14PM 49.8000 -121.7833 219° Southwest 300 345 18,100 -960 Descending Vancouver Center
03:15PM 49.7333 -121.8833 224° Southwest 310 357 17,200 -900 Descending Vancouver Center
03:16PM 49.6667 -121.9667 219° Southwest 300 345 16,300 -900 Descending Vancouver Center
03:17PM 49.6333 -122.0500 238° Southwest 300 345 15,400 -900 Descending Vancouver Center
03:18PM 49.5500 -122.1333 213° Southwest 300 345 14,500 -900 Descending Vancouver Center
03:19PM 49.5000 -122.2000 221° Southwest 290 334 13,600 -900 Descending Vancouver Center
03:20PM 49.4333 -122.2833 219° Southwest 290 334 12,700 -900 Descending Vancouver Center
03:21PM 49.3833 -122.3667 227° Southwest 280 322 11,800 -960 Descending Vancouver Center
03:22PM 49.3333 -122.4500 227° Southwest 280 322 10,800 -1,200 Descending Vancouver Center
03:23PM 49.2667 -122.5500 224° Southwest 270 311 9,500 -1,380 Descending Vancouver Center
03:24PM 49.2167 -122.6167 221° Southwest 270 311 8,100 -1,560 Descending Vancouver Center
03:25PM 49.1833 -122.7000 239° Southwest 250 288 6,400 -1,620 Descending Vancouver Center
03:26PM 49.1500 -122.8000 243° Southwest 240 276 4,900 -1,440 Descending Vancouver Center
03:27PM 49.1500 -122.8833 270° West 220 253 3,600 -1,200 Descending Vancouver Center
03:28PM 49.1667 -122.9500 291° West 190 219 2,600 -1,020 Descending Vancouver Center